Accord, NY

10:52 PM EDT on March 26, 2015 (GMT -0400)
Kelder's Farm | | Change Station
CLOSE
Current Station
Personal Weather Station
Location: Accord, NY
Elevation: 266 ft
Nearby Weather Stations

Elev 266 ft 41.79 °N, 74.26 °W | Updated 2 minutes ago

Rain
Rain
39.5 °F
Feels Like 40 °F
N
0.0
Wind Variable Wind from NW
Gusts 1.0 mph

Today
High -- | Low -- °F
--% Chance of Precip.
Yesterday
High -- | Low -- °F
Precip. -- in
6:50 AM 7:15 PM
Waxing Crescent, 48% visible
Pressure 29.72 in
Visibility 4.0 miles
Clouds Overcast 700 ft
Windchill 40 °F
Dew Point 39 °F
Humidity 97%
Rainfall 0.30 in
Snow Depth Not available.
UV 0.0 out of 12
Pollen 3.00 out of 12
Air Quality Not available.
Flu Activity Not available.
METAR KMGJ 270154Z AUTO VRB05KT 4SM RA BR OVC007 06/04 A2971 RMK AO2 SLP062 P0017 T00560044 TSNO

More Conditions Fewer Conditions

Pressure 29.72 in
Visibility 4.0 miles
Clouds Overcast 700 ft
Windchill 40 °F
Dew Point 39 °F
Humidity 97%
Rainfall 0.30 in
Snow Depth Not available.
UV 0.0 out of 12
Pollen 3.00 out of 12
Air Quality Not available.
Flu Activity Not available.
METAR KMGJ 270154Z AUTO VRB05KT 4SM RA BR OVC007 06/04 A2971 RMK AO2 SLP062 P0017 T00560044 TSNO

More Conditions Fewer Conditions

10-Day Weather Forecast

Almanac

Astronomy

Mar. 26, 2015 Rise Set
Actual Time
Civil Twilight
Nautical Twilight
Astronomical Twilight
Moon
Length of Visible Light
Length of Day
Tomorrow will be .
, % of the Moon is Illuminated

Today's Extremes

State Highs State Lows

Community

WunderPhotos

Upload Photos

1,808,689 photos uploaded!

WunderBlogs® & News

Nearby

Air Quality

  Air Quality AQ Index Pollutant
Not available.

Snow Depth

Station Depth Elevation

Earthquake Activity

City Distance Mag. Time & Date
Minimum magnitude displayed is 2.5.

Coastal Water Temperatures

Place Temperature

Stations

Nearby Weather Stations

Station Location Temp. Windchill Dew Point Humidity Wind Precip. Elev Updated Type